Jessore, Bangladesh
Current Conditions -  °F | °C
As of 3:20 PM on Wednesday 28 Jan 2015 (Local Time) from VECC Reporting Station
Haze Haze  
Wind Chill: 81°   Ceiling: Unl
Heat Index: 81°   Visibility: 2mi
Dew Point: 57°   Wind: 8mph
Humidity: 45%   Direction: 10°N
Pressure: 29.88"   Gusts: NA
Location:  23.15°N, 89.21°E
Report Text: VECC 280920Z 01007KT 3200 HZ NSC 27/14 Q1012 NOSIG
Loading
Personal Weather Stations






























Interactive Weather Map New forecast layout! Learn more

10-Day Weather Forecast

Advertisements
Track Severe Weather on mobile